FFT3073 KRDU-KCLE
Flight info
| Callsign | FFT3073 |
|---|---|
| Flight time | N/A |
| Altitude | 38000 |
| Route | LWOOD5 DANCO HVQ JANYS ROLLN2 |
| Aircraft | A21N/M-SDE3FGHIRWY/LB1 |
Departure
| Time | 2026-05-04 21:02 |
|---|---|
| Airport | Raleigh-Durham International Airport (KRDU) |
Arrival
| Time | N/A |
|---|---|
| Airport | Cleveland Hopkins International Airport (KCLE) |
| Time | Latitude | Longitude | Altitude | Speed | Heading |
|---|---|---|---|---|---|
| 2026-05-04 20:32 | 35.87495 | -78.79669 | 385 ft | 0 kts | 56° |
| 2026-05-04 20:47 | 35.87493 | -78.79675 | 385 ft | 2 kts | 57° |
| 2026-05-04 20:47 | 35.87484 | -78.79690 | 385 ft | 2 kts | 56° |
| 2026-05-04 20:47 | 35.87479 | -78.79700 | 384 ft | 1 kts | 57° |
| 2026-05-04 20:48 | 35.87469 | -78.79715 | 384 ft | 2 kts | 31° |
| 2026-05-04 20:48 | 35.87455 | -78.79723 | 384 ft | 2 kts | 10° |
| 2026-05-04 20:48 | 35.87444 | -78.79723 | 384 ft | 0 kts | 355° |
| 2026-05-04 20:48 | 35.87437 | -78.79723 | 384 ft | 0 kts | 353° |
| 2026-05-04 20:52 | 35.87439 | -78.79723 | 384 ft | 1 kts | 353° |
| 2026-05-04 20:52 | 35.87461 | -78.79733 | 383 ft | 5 kts | 327° |
| 2026-05-04 20:52 | 35.87483 | -78.79753 | 382 ft | 0 kts | 319° |
| 2026-05-04 20:53 | 35.87484 | -78.79755 | 382 ft | 1 kts | 319° |
| 2026-05-04 20:53 | 35.87502 | -78.79774 | 382 ft | 5 kts | 318° |
| 2026-05-04 20:53 | 35.87535 | -78.79812 | 381 ft | 6 kts | 320° |
| 2026-05-04 20:54 | 35.87582 | -78.79823 | 381 ft | 7 kts | 22° |
| 2026-05-04 20:54 | 35.87626 | -78.79781 | 382 ft | 7 kts | 44° |
| 2026-05-04 20:54 | 35.87662 | -78.79736 | 383 ft | 6 kts | 45° |
| 2026-05-04 20:54 | 35.87698 | -78.79692 | 384 ft | 7 kts | 45° |
| 2026-05-04 20:55 | 35.87742 | -78.79637 | 385 ft | 9 kts | 45° |
| 2026-05-04 20:55 | 35.87795 | -78.79571 | 387 ft | 11 kts | 45° |
| 2026-05-04 20:55 | 35.87854 | -78.79498 | 389 ft | 12 kts | 45° |
| 2026-05-04 20:55 | 35.87917 | -78.79422 | 391 ft | 12 kts | 45° |
| 2026-05-04 20:56 | 35.87979 | -78.79346 | 393 ft | 12 kts | 45° |
| 2026-05-04 20:56 | 35.88037 | -78.79274 | 394 ft | 11 kts | 45° |
| 2026-05-04 20:56 | 35.88092 | -78.79205 | 396 ft | 11 kts | 45° |
| 2026-05-04 20:56 | 35.88157 | -78.79125 | 398 ft | 14 kts | 45° |
| 2026-05-04 20:57 | 35.88224 | -78.79043 | 400 ft | 13 kts | 45° |
| 2026-05-04 20:57 | 35.88290 | -78.78961 | 400 ft | 13 kts | 45° |
| 2026-05-04 20:57 | 35.88354 | -78.78882 | 402 ft | 12 kts | 45° |
| 2026-05-04 20:57 | 35.88422 | -78.78799 | 403 ft | 15 kts | 45° |
| 2026-05-04 20:58 | 35.88501 | -78.78702 | 404 ft | 15 kts | 45° |
| 2026-05-04 20:58 | 35.88580 | -78.78605 | 404 ft | 16 kts | 45° |
| 2026-05-04 20:58 | 35.88661 | -78.78504 | 403 ft | 16 kts | 45° |
| 2026-05-04 20:58 | 35.88744 | -78.78401 | 403 ft | 17 kts | 44° |
| 2026-05-04 20:59 | 35.88831 | -78.78295 | 402 ft | 17 kts | 45° |
| 2026-05-04 20:59 | 35.88919 | -78.78186 | 402 ft | 18 kts | 45° |
| 2026-05-04 20:59 | 35.89009 | -78.78076 | 401 ft | 18 kts | 44° |
| 2026-05-04 20:59 | 35.89098 | -78.77967 | 402 ft | 17 kts | 45° |
| 2026-05-04 21:00 | 35.89183 | -78.77860 | 403 ft | 16 kts | 45° |
| 2026-05-04 21:00 | 35.89251 | -78.77778 | 404 ft | 9 kts | 43° |
| 2026-05-04 21:00 | 35.89310 | -78.77745 | 404 ft | 9 kts | 350° |
| 2026-05-04 21:00 | 35.89353 | -78.77808 | 404 ft | 10 kts | 279° |
| 2026-05-04 21:01 | 35.89330 | -78.77869 | 403 ft | 7 kts | 224° |
| 2026-05-04 21:01 | 35.89204 | -78.78023 | 401 ft | 58 kts | 225° |
| 2026-05-04 21:01 | 35.88746 | -78.78585 | 402 ft | 124 kts | 225° |
| 2026-05-04 21:01 | 35.88010 | -78.79500 | 472 ft | 167 kts | 224° |
| 2026-05-04 21:02 | 35.87189 | -78.80522 | 1086 ft | 166 kts | 224° |
| 2026-05-04 21:02 | 35.86373 | -78.81489 | 1817 ft | 163 kts | 223° |
| 2026-05-04 21:02 | 35.85528 | -78.82440 | 2446 ft | 165 kts | 222° |
| 2026-05-04 21:02 | 35.84770 | -78.83563 | 2822 ft | 180 kts | 247° |
| 2026-05-04 21:03 | 35.84721 | -78.85216 | 3198 ft | 200 kts | 282° |
| 2026-05-04 21:03 | 35.85213 | -78.86902 | 3604 ft | 219 kts | 289° |
| 2026-05-04 21:03 | 35.85832 | -78.88725 | 3983 ft | 242 kts | 290° |
| 2026-05-04 21:03 | 35.86633 | -78.90673 | 4497 ft | 260 kts | 298° |
| 2026-05-04 21:04 | 35.87598 | -78.92625 | 5237 ft | 266 kts | 299° |
| 2026-05-04 21:04 | 35.88601 | -78.94617 | 6091 ft | 269 kts | 299° |
| 2026-05-04 21:04 | 35.89610 | -78.96649 | 6978 ft | 270 kts | 299° |
| 2026-05-04 21:04 | 35.90601 | -78.98673 | 7913 ft | 269 kts | 300° |
| 2026-05-04 21:05 | 35.91557 | -79.00641 | 8808 ft | 267 kts | 300° |
| 2026-05-04 21:05 | 35.92524 | -79.02641 | 9679 ft | 266 kts | 300° |
| 2026-05-04 21:05 | 35.93476 | -79.04612 | 10470 ft | 267 kts | 300° |
| 2026-05-04 21:05 | 35.94471 | -79.06677 | 10911 ft | 281 kts | 300° |
| 2026-05-04 21:06 | 35.95512 | -79.08841 | 11528 ft | 288 kts | 300° |
| 2026-05-04 21:06 | 35.96561 | -79.11025 | 12319 ft | 288 kts | 301° |
| 2026-05-04 21:06 | 35.97609 | -79.13207 | 13086 ft | 289 kts | 301° |
| 2026-05-04 21:06 | 35.98644 | -79.15369 | 13806 ft | 290 kts | 301° |
| 2026-05-04 21:07 | 35.99679 | -79.17526 | 14454 ft | 293 kts | 301° |
| 2026-05-04 21:07 | 36.00724 | -79.19706 | 15067 ft | 296 kts | 300° |
| 2026-05-04 21:07 | 36.01767 | -79.21886 | 15668 ft | 300 kts | 300° |
| 2026-05-04 21:07 | 36.02815 | -79.24130 | 16229 ft | 304 kts | 298° |
| 2026-05-04 21:08 | 36.03789 | -79.26525 | 16808 ft | 308 kts | 295° |
| 2026-05-04 21:08 | 36.04662 | -79.28954 | 17371 ft | 311 kts | 294° |
| 2026-05-04 21:08 | 36.05532 | -79.31415 | 17896 ft | 315 kts | 293° |
| 2026-05-04 21:08 | 36.06454 | -79.33957 | 18429 ft | 319 kts | 297° |
| 2026-05-04 21:09 | 36.07733 | -79.36206 | 18933 ft | 324 kts | 310° |
| 2026-05-04 21:09 | 36.09457 | -79.38048 | 19448 ft | 331 kts | 323° |
| 2026-05-04 21:09 | 36.11411 | -79.39536 | 19953 ft | 335 kts | 326° |
| 2026-05-04 21:09 | 36.13418 | -79.40998 | 20460 ft | 338 kts | 326° |
| 2026-05-04 21:10 | 36.15479 | -79.42493 | 20961 ft | 341 kts | 326° |
| 2026-05-04 21:10 | 36.17531 | -79.43984 | 21447 ft | 344 kts | 326° |
| 2026-05-04 21:10 | 36.19586 | -79.45482 | 21936 ft | 346 kts | 326° |
| 2026-05-04 21:10 | 36.21661 | -79.46993 | 22388 ft | 349 kts | 326° |
| 2026-05-04 21:11 | 36.23763 | -79.48527 | 22821 ft | 353 kts | 326° |
| 2026-05-04 21:11 | 36.25883 | -79.50075 | 23263 ft | 356 kts | 326° |
| 2026-05-04 21:11 | 36.28021 | -79.51639 | 23702 ft | 358 kts | 326° |
| 2026-05-04 21:11 | 36.30183 | -79.53221 | 24156 ft | 360 kts | 326° |
| 2026-05-04 21:12 | 36.32352 | -79.54810 | 24600 ft | 362 kts | 326° |